sensor_id;sensor_type;location;lat;lon;timestamp;pressure;altitude;pressure_sealevel;temperature
60003;BMP280;46322;52.018;8.702;2022-08-24T00:03:53;100469.88;;;31.83
60003;BMP280;46322;52.018;8.702;2022-08-24T00:08:54;100472.84;;;31.70
60003;BMP280;46322;52.018;8.702;2022-08-24T00:13:55;100470.13;;;31.70
60003;BMP280;46322;52.018;8.702;2022-08-24T00:18:55;100467.63;;;31.48
60003;BMP280;46322;52.018;8.702;2022-08-24T00:23:56;100468.25;;;31.43
60003;BMP280;46322;52.018;8.702;2022-08-24T00:28:57;100472.75;;;31.22
60003;BMP280;46322;52.018;8.702;2022-08-24T00:33:57;100461.31;;;31.24
60003;BMP280;46322;52.018;8.702;2022-08-24T00:38:58;100472.47;;;31.11
60003;BMP280;46322;52.018;8.702;2022-08-24T00:44:00;100472.47;;;31.11
60003;BMP280;46322;52.018;8.702;2022-08-24T00:49:04;100480.06;;;31.16
60003;BMP280;46322;52.018;8.702;2022-08-24T00:54:11;100470.50;;;31.03
60003;BMP280;46322;52.018;8.702;2022-08-24T00:59:25;100471.69;;;31.11
60003;BMP280;46322;52.018;8.702;2022-08-24T01:04:34;100471.00;;;30.92
60003;BMP280;46322;52.018;8.702;2022-08-24T01:09:48;100468.41;;;30.79
60003;BMP280;46322;52.018;8.702;2022-08-24T01:14:48;100479.34;;;30.43
60003;BMP280;46322;52.018;8.702;2022-08-24T01:20:03;100482.22;;;30.94
60003;BMP280;46322;52.018;8.702;2022-08-24T01:25:05;100480.28;;;30.76
60003;BMP280;46322;52.018;8.702;2022-08-24T01:30:09;100476.66;;;30.34
60003;BMP280;46322;52.018;8.702;2022-08-24T01:35:09;100477.09;;;30.51
60003;BMP280;46322;52.018;8.702;2022-08-24T01:40:26;100483.59;;;30.26
60003;BMP280;46322;52.018;8.702;2022-08-24T01:45:27;100484.50;;;30.32
60003;BMP280;46322;52.018;8.702;2022-08-24T01:50:28;100479.09;;;29.83
60003;BMP280;46322;52.018;8.702;2022-08-24T01:55:29;100481.28;;;30.06
60003;BMP280;46322;52.018;8.702;2022-08-24T02:00:30;100477.41;;;28.80
60003;BMP280;46322;52.018;8.702;2022-08-24T02:05:30;100480.25;;;29.64
60003;BMP280;46322;52.018;8.702;2022-08-24T02:10:32;100482.50;;;30.14
60003;BMP280;46322;52.018;8.702;2022-08-24T02:15:37;100489.22;;;30.95
60003;BMP280;46322;52.018;8.702;2022-08-24T02:20:38;100480.84;;;30.26
60003;BMP280;46322;52.018;8.702;2022-08-24T02:25:38;100491.00;;;29.98
60003;BMP280;46322;52.018;8.702;2022-08-24T02:30:39;100471.91;;;30.34
60003;BMP280;46322;52.018;8.702;2022-08-24T02:35:39;100475.41;;;30.35
60003;BMP280;46322;52.018;8.702;2022-08-24T02:40:40;100483.31;;;30.33
60003;BMP280;46322;52.018;8.702;2022-08-24T02:45:44;100485.53;;;30.07
60003;BMP280;46322;52.018;8.702;2022-08-24T02:50:48;100498.66;;;30.30
60003;BMP280;46322;52.018;8.702;2022-08-24T02:55:55;100493.75;;;30.07
60003;BMP280;46322;52.018;8.702;2022-08-24T03:00:56;100495.91;;;30.21
60003;BMP280;46322;52.018;8.702;2022-08-24T03:05:56;100500.34;;;30.28
60003;BMP280;46322;52.018;8.702;2022-08-24T03:10:57;100499.38;;;30.13
60003;BMP280;46322;52.018;8.702;2022-08-24T03:15:58;100499.97;;;29.98
60003;BMP280;46322;52.018;8.702;2022-08-24T03:20:59;100500.66;;;29.81
60003;BMP280;46322;52.018;8.702;2022-08-24T03:26:10;100507.56;;;29.64
60003;BMP280;46322;52.018;8.702;2022-08-24T03:31:11;100495.28;;;29.37
60003;BMP280;46322;52.018;8.702;2022-08-24T03:36:11;100498.34;;;29.48
60003;BMP280;46322;52.018;8.702;2022-08-24T03:41:12;100496.47;;;29.67
60003;BMP280;46322;52.018;8.702;2022-08-24T03:46:14;100501.63;;;29.12
60003;BMP280;46322;52.018;8.702;2022-08-24T03:51:18;100494.66;;;29.64
60003;BMP280;46322;52.018;8.702;2022-08-24T03:56:19;100496.44;;;29.05
60003;BMP280;46322;52.018;8.702;2022-08-24T04:01:19;100489.84;;;28.12
60003;BMP280;46322;52.018;8.702;2022-08-24T04:06:21;100492.38;;;28.54
60003;BMP280;46322;52.018;8.702;2022-08-24T04:11:24;100498.84;;;27.71
60003;BMP280;46322;52.018;8.702;2022-08-24T04:16:25;100500.66;;;26.75
60003;BMP280;46322;52.018;8.702;2022-08-24T04:21:29;100499.44;;;28.64
60003;BMP280;46322;52.018;8.702;2022-08-24T04:26:30;100502.63;;;28.50
60003;BMP280;46322;52.018;8.702;2022-08-24T04:31:31;100511.06;;;28.30
60003;BMP280;46322;52.018;8.702;2022-08-24T04:36:31;100498.94;;;29.43
60003;BMP280;46322;52.018;8.702;2022-08-24T04:41:31;100497.25;;;28.93
60003;BMP280;46322;52.018;8.702;2022-08-24T04:46:32;100497.88;;;27.90
60003;BMP280;46322;52.018;8.702;2022-08-24T04:51:32;100511.97;;;28.96
60003;BMP280;46322;52.018;8.702;2022-08-24T04:56:33;100512.16;;;29.76
60003;BMP280;46322;52.018;8.702;2022-08-24T05:01:34;100519.44;;;30.19
60003;BMP280;46322;52.018;8.702;2022-08-24T05:06:34;100516.97;;;30.12
60003;BMP280;46322;52.018;8.702;2022-08-24T05:11:36;100509.28;;;29.79
60003;BMP280;46322;52.018;8.702;2022-08-24T05:16:36;100520.25;;;29.27
60003;BMP280;46322;52.018;8.702;2022-08-24T05:21:36;100516.47;;;28.90
60003;BMP280;46322;52.018;8.702;2022-08-24T05:26:36;100524.53;;;29.59
60003;BMP280;46322;52.018;8.702;2022-08-24T05:31:37;100529.94;;;30.29
60003;BMP280;46322;52.018;8.702;2022-08-24T05:36:45;100531.91;;;29.27
60003;BMP280;46322;52.018;8.702;2022-08-24T05:41:46;100533.84;;;29.70
60003;BMP280;46322;52.018;8.702;2022-08-24T05:46:46;100551.72;;;30.42
60003;BMP280;46322;52.018;8.702;2022-08-24T05:51:47;100546.81;;;30.37
60003;BMP280;46322;52.018;8.702;2022-08-24T05:56:47;100547.34;;;30.05
60003;BMP280;46322;52.018;8.702;2022-08-24T06:01:48;100550.81;;;31.60
60003;BMP280;46322;52.018;8.702;2022-08-24T06:06:49;100559.38;;;29.24
60003;BMP280;46322;52.018;8.702;2022-08-24T06:11:49;100561.75;;;29.00
60003;BMP280;46322;52.018;8.702;2022-08-24T06:16:50;100562.09;;;30.56
60003;BMP280;46322;52.018;8.702;2022-08-24T06:21:51;100569.22;;;31.17
60003;BMP280;46322;52.018;8.702;2022-08-24T06:26:52;100562.53;;;31.70
60003;BMP280;46322;52.018;8.702;2022-08-24T06:31:52;100563.00;;;30.62
60003;BMP280;46322;52.018;8.702;2022-08-24T06:36:52;100564.31;;;32.91
60003;BMP280;46322;52.018;8.702;2022-08-24T06:41:53;100576.81;;;31.13
60003;BMP280;46322;52.018;8.702;2022-08-24T06:46:53;100580.78;;;30.76
60003;BMP280;46322;52.018;8.702;2022-08-24T06:51:53;100582.44;;;31.37
60003;BMP280;46322;52.018;8.702;2022-08-24T06:56:54;100586.22;;;30.58
60003;BMP280;46322;52.018;8.702;2022-08-24T07:01:55;100572.41;;;32.09
60003;BMP280;46322;52.018;8.702;2022-08-24T07:06:55;100581.56;;;31.04
60003;BMP280;46322;52.018;8.702;2022-08-24T07:11:55;100589.59;;;31.86
60003;BMP280;46322;52.018;8.702;2022-08-24T07:16:56;100594.00;;;33.02
60003;BMP280;46322;52.018;8.702;2022-08-24T07:21:57;100590.03;;;33.18
60003;BMP280;46322;52.018;8.702;2022-08-24T07:26:57;100601.84;;;33.09
60003;BMP280;46322;52.018;8.702;2022-08-24T07:31:58;100604.69;;;34.28
60003;BMP280;46322;52.018;8.702;2022-08-24T07:36:58;100608.41;;;35.54
60003;BMP280;46322;52.018;8.702;2022-08-24T07:41:58;100607.53;;;35.11
60003;BMP280;46322;52.018;8.702;2022-08-24T07:46:58;100606.69;;;33.29
60003;BMP280;46322;52.018;8.702;2022-08-24T07:51:59;100611.16;;;34.97
60003;BMP280;46322;52.018;8.702;2022-08-24T07:57:01;100616.88;;;35.93
60003;BMP280;46322;52.018;8.702;2022-08-24T08:02:02;100623.78;;;35.04
60003;BMP280;46322;52.018;8.702;2022-08-24T08:07:02;100621.72;;;33.77
60003;BMP280;46322;52.018;8.702;2022-08-24T08:12:03;100631.31;;;35.35
60003;BMP280;46322;52.018;8.702;2022-08-24T08:17:04;100632.34;;;34.86
60003;BMP280;46322;52.018;8.702;2022-08-24T08:22:04;100636.25;;;36.75
60003;BMP280;46322;52.018;8.702;2022-08-24T08:27:05;100631.69;;;34.70
60003;BMP280;46322;52.018;8.702;2022-08-24T08:32:07;100627.41;;;35.52
60003;BMP280;46322;52.018;8.702;2022-08-24T08:37:08;100629.75;;;37.22
60003;BMP280;46322;52.018;8.702;2022-08-24T09:09:40;100624.88;;;36.39
60003;BMP280;46322;52.018;8.702;2022-08-24T09:15:06;100621.47;;;37.17
60003;BMP280;46322;52.018;8.702;2022-08-24T09:20:22;100621.03;;;39.34
60003;BMP280;46322;52.018;8.702;2022-08-24T09:25:32;100620.28;;;37.97
60003;BMP280;46322;52.018;8.702;2022-08-24T09:36:11;100618.81;;;37.80
60003;BMP280;46322;52.018;8.702;2022-08-24T09:41:30;100611.28;;;38.68
60003;BMP280;46322;52.018;8.702;2022-08-24T09:52:26;100609.84;;;37.46
60003;BMP280;46322;52.018;8.702;2022-08-24T10:03:10;100617.47;;;38.49
60003;BMP280;46322;52.018;8.702;2022-08-24T10:08:24;100601.69;;;38.98
60003;BMP280;46322;52.018;8.702;2022-08-24T10:29:25;100593.00;;;39.37
60003;BMP280;46322;52.018;8.702;2022-08-24T10:40:02;100591.56;;;39.92
60003;BMP280;46322;52.018;8.702;2022-08-24T10:45:16;100599.22;;;40.05
60003;BMP280;46322;52.018;8.702;2022-08-24T10:50:27;100588.25;;;39.32
60003;BMP280;46322;52.018;8.702;2022-08-24T10:55:33;100593.81;;;40.76
60003;BMP280;46322;52.018;8.702;2022-08-24T11:00:33;100597.41;;;40.71
60003;BMP280;46322;52.018;8.702;2022-08-24T11:05:40;100594.78;;;40.79
60003;BMP280;46322;52.018;8.702;2022-08-24T11:10:41;100588.06;;;42.49
60003;BMP280;46322;52.018;8.702;2022-08-24T11:15:47;100585.25;;;42.69
60003;BMP280;46322;52.018;8.702;2022-08-24T11:20:50;100587.66;;;44.18
60003;BMP280;46322;52.018;8.702;2022-08-24T11:25:56;100590.88;;;42.49
60003;BMP280;46322;52.018;8.702;2022-08-24T11:30:56;100597.91;;;41.28
60003;BMP280;46322;52.018;8.702;2022-08-24T11:35:58;100599.00;;;41.72
60003;BMP280;46322;52.018;8.702;2022-08-24T11:41:10;100591.69;;;44.32
60003;BMP280;46322;52.018;8.702;2022-08-24T11:46:31;100590.41;;;41.36
60003;BMP280;46322;52.018;8.702;2022-08-24T11:51:45;100582.78;;;42.87
60003;BMP280;46322;52.018;8.702;2022-08-24T11:57:10;100575.09;;;43.59
60003;BMP280;46322;52.018;8.702;2022-08-24T12:02:16;100580.00;;;46.18
60003;BMP280;46322;52.018;8.702;2022-08-24T12:12:37;100573.69;;;48.24
60003;BMP280;46322;52.018;8.702;2022-08-24T12:17:47;100580.72;;;43.81
60003;BMP280;46322;52.018;8.702;2022-08-24T12:22:52;100567.19;;;48.59
60003;BMP280;46322;52.018;8.702;2022-08-24T12:27:56;100570.75;;;46.76
60003;BMP280;46322;52.018;8.702;2022-08-24T12:33:04;100570.34;;;48.94
60003;BMP280;46322;52.018;8.702;2022-08-24T12:38:10;100564.03;;;47.88
60003;BMP280;46322;52.018;8.702;2022-08-24T12:43:21;100563.78;;;52.14
60003;BMP280;46322;52.018;8.702;2022-08-24T12:48:31;100568.72;;;51.28
60003;BMP280;46322;52.018;8.702;2022-08-24T12:59:05;100561.41;;;48.48
60003;BMP280;46322;52.018;8.702;2022-08-24T13:04:14;100563.47;;;47.44
60003;BMP280;46322;52.018;8.702;2022-08-24T13:09:35;100562.94;;;54.48
60003;BMP280;46322;52.018;8.702;2022-08-24T13:14:35;100556.50;;;50.56
60003;BMP280;46322;52.018;8.702;2022-08-24T13:20:19;100561.06;;;48.92
60003;BMP280;46322;52.018;8.702;2022-08-24T13:25:45;100554.63;;;49.83
60003;BMP280;46322;52.018;8.702;2022-08-24T13:36:44;100561.25;;;47.98
60003;BMP280;46322;52.018;8.702;2022-08-24T13:41:48;100561.16;;;44.19
60003;BMP280;46322;52.018;8.702;2022-08-24T13:47:15;100538.03;;;53.14
60003;BMP280;46322;52.018;8.702;2022-08-24T13:52:38;100545.81;;;53.00
60003;BMP280;46322;52.018;8.702;2022-08-24T13:57:47;100546.94;;;51.54
60003;BMP280;46322;52.018;8.702;2022-08-24T14:03:11;100542.13;;;55.26
60003;BMP280;46322;52.018;8.702;2022-08-24T14:08:38;100544.72;;;46.49
60003;BMP280;46322;52.018;8.702;2022-08-24T14:19:29;100540.09;;;53.99
60003;BMP280;46322;52.018;8.702;2022-08-24T14:24:39;100538.00;;;50.76
60003;BMP280;46322;52.018;8.702;2022-08-24T14:29:46;100518.63;;;58.71
60003;BMP280;46322;52.018;8.702;2022-08-24T14:35:03;100519.91;;;59.93
60003;BMP280;46322;52.018;8.702;2022-08-24T14:40:29;100510.31;;;61.07
60003;BMP280;46322;52.018;8.702;2022-08-24T15:01:44;100516.38;;;50.46
60003;BMP280;46322;52.018;8.702;2022-08-24T15:06:49;100509.84;;;53.45
60003;BMP280;46322;52.018;8.702;2022-08-24T15:11:53;100502.66;;;53.29
60003;BMP280;46322;52.018;8.702;2022-08-24T15:17:05;100507.69;;;51.00
60003;BMP280;46322;52.018;8.702;2022-08-24T15:22:11;100501.75;;;49.93
60003;BMP280;46322;52.018;8.702;2022-08-24T15:27:17;100492.97;;;51.24
60003;BMP280;46322;52.018;8.702;2022-08-24T15:32:22;100499.13;;;50.98
60003;BMP280;46322;52.018;8.702;2022-08-24T15:37:37;100492.34;;;50.80
60003;BMP280;46322;52.018;8.702;2022-08-24T15:42:37;100487.38;;;47.13
60003;BMP280;46322;52.018;8.702;2022-08-24T15:47:38;100474.50;;;47.01
60003;BMP280;46322;52.018;8.702;2022-08-24T15:57:53;100482.94;;;48.52
60003;BMP280;46322;52.018;8.702;2022-08-24T16:03:18;100491.41;;;48.42
60003;BMP280;46322;52.018;8.702;2022-08-24T16:08:19;100481.53;;;50.41
60003;BMP280;46322;52.018;8.702;2022-08-24T16:13:24;100485.94;;;49.67
60003;BMP280;46322;52.018;8.702;2022-08-24T16:18:49;100477.00;;;48.98
60003;BMP280;46322;52.018;8.702;2022-08-24T16:23:59;100477.81;;;49.41
60003;BMP280;46322;52.018;8.702;2022-08-24T16:29:00;100485.94;;;48.85
60003;BMP280;46322;52.018;8.702;2022-08-24T16:34:28;100484.72;;;49.28
60003;BMP280;46322;52.018;8.702;2022-08-24T16:39:33;100486.34;;;49.00
60003;BMP280;46322;52.018;8.702;2022-08-24T16:44:38;100482.91;;;48.71
60003;BMP280;46322;52.018;8.702;2022-08-24T16:49:55;100483.81;;;47.49
60003;BMP280;46322;52.018;8.702;2022-08-24T16:54:56;100488.91;;;47.89
60003;BMP280;46322;52.018;8.702;2022-08-24T17:00:11;100484.44;;;48.93
60003;BMP280;46322;52.018;8.702;2022-08-24T17:05:16;100490.78;;;46.07
60003;BMP280;46322;52.018;8.702;2022-08-24T17:10:18;100476.06;;;46.67
60003;BMP280;46322;52.018;8.702;2022-08-24T17:15:19;100484.50;;;46.50
60003;BMP280;46322;52.018;8.702;2022-08-24T17:20:20;100487.22;;;47.48
60003;BMP280;46322;52.018;8.702;2022-08-24T17:25:22;100475.53;;;46.78
60003;BMP280;46322;52.018;8.702;2022-08-24T17:30:23;100486.25;;;46.99
60003;BMP280;46322;52.018;8.702;2022-08-24T17:35:23;100490.06;;;46.24
60003;BMP280;46322;52.018;8.702;2022-08-24T17:40:25;100499.34;;;46.09
60003;BMP280;46322;52.018;8.702;2022-08-24T17:45:25;100504.16;;;44.07
60003;BMP280;46322;52.018;8.702;2022-08-24T17:50:26;100511.19;;;42.53
60003;BMP280;46322;52.018;8.702;2022-08-24T17:55:26;100520.63;;;42.01
60003;BMP280;46322;52.018;8.702;2022-08-24T18:00:27;100520.47;;;40.92
60003;BMP280;46322;52.018;8.702;2022-08-24T18:05:29;100529.06;;;39.86
60003;BMP280;46322;52.018;8.702;2022-08-24T18:10:30;100526.13;;;40.16
60003;BMP280;46322;52.018;8.702;2022-08-24T18:15:33;100524.25;;;38.87
60003;BMP280;46322;52.018;8.702;2022-08-24T18:20:37;100534.19;;;38.72
60003;BMP280;46322;52.018;8.702;2022-08-24T18:25:44;100542.06;;;38.62
60003;BMP280;46322;52.018;8.702;2022-08-24T18:30:46;100542.81;;;39.17
60003;BMP280;46322;52.018;8.702;2022-08-24T18:35:46;100549.59;;;37.91
60003;BMP280;46322;52.018;8.702;2022-08-24T18:40:46;100555.25;;;37.57
60003;BMP280;46322;52.018;8.702;2022-08-24T18:45:47;100559.06;;;37.43
60003;BMP280;46322;52.018;8.702;2022-08-24T18:50:47;100562.66;;;37.22
60003;BMP280;46322;52.018;8.702;2022-08-24T18:55:48;100570.63;;;38.51
60003;BMP280;46322;52.018;8.702;2022-08-24T19:00:48;100569.44;;;37.21
60003;BMP280;46322;52.018;8.702;2022-08-24T19:05:49;100575.63;;;37.66
60003;BMP280;46322;52.018;8.702;2022-08-24T19:10:54;100581.75;;;37.08
60003;BMP280;46322;52.018;8.702;2022-08-24T19:15:54;100575.97;;;36.95
60003;BMP280;46322;52.018;8.702;2022-08-24T19:20:55;100577.41;;;37.46
60003;BMP280;46322;52.018;8.702;2022-08-24T19:25:56;100579.97;;;36.50
60003;BMP280;46322;52.018;8.702;2022-08-24T19:31:04;100593.75;;;36.33
60003;BMP280;46322;52.018;8.702;2022-08-24T19:36:06;100599.56;;;36.63
60003;BMP280;46322;52.018;8.702;2022-08-24T19:41:08;100596.19;;;36.20
60003;BMP280;46322;52.018;8.702;2022-08-24T19:46:09;100595.34;;;36.73
60003;BMP280;46322;52.018;8.702;2022-08-24T19:51:13;100590.53;;;37.12
60003;BMP280;46322;52.018;8.702;2022-08-24T19:56:13;100594.25;;;36.37
60003;BMP280;46322;52.018;8.702;2022-08-24T20:01:19;100593.56;;;36.92
60003;BMP280;46322;52.018;8.702;2022-08-24T20:06:21;100597.31;;;36.67
60003;BMP280;46322;52.018;8.702;2022-08-24T20:11:22;100606.34;;;36.56
60003;BMP280;46322;52.018;8.702;2022-08-24T20:16:25;100607.06;;;36.46
60003;BMP280;46322;52.018;8.702;2022-08-24T20:21:26;100610.16;;;36.00
60003;BMP280;46322;52.018;8.702;2022-08-24T20:26:39;100615.94;;;36.07
60003;BMP280;46322;52.018;8.702;2022-08-24T20:31:39;100617.03;;;35.79
60003;BMP280;46322;52.018;8.702;2022-08-24T20:36:45;100615.97;;;35.65
60003;BMP280;46322;52.018;8.702;2022-08-24T20:41:45;100617.50;;;34.77
60003;BMP280;46322;52.018;8.702;2022-08-24T20:46:46;100611.81;;;35.12
60003;BMP280;46322;52.018;8.702;2022-08-24T20:51:48;100612.91;;;34.95
60003;BMP280;46322;52.018;8.702;2022-08-24T20:56:48;100608.03;;;34.84
60003;BMP280;46322;52.018;8.702;2022-08-24T21:01:49;100623.22;;;35.00
60003;BMP280;46322;52.018;8.702;2022-08-24T21:06:50;100623.63;;;34.67
60003;BMP280;46322;52.018;8.702;2022-08-24T21:11:50;100624.56;;;34.84
60003;BMP280;46322;52.018;8.702;2022-08-24T21:16:51;100627.31;;;34.84
60003;BMP280;46322;52.018;8.702;2022-08-24T21:21:51;100623.97;;;34.54
60003;BMP280;46322;52.018;8.702;2022-08-24T21:26:53;100626.56;;;32.94
60003;BMP280;46322;52.018;8.702;2022-08-24T21:31:53;100637.97;;;34.30
60003;BMP280;46322;52.018;8.702;2022-08-24T21:36:54;100633.56;;;34.18
60003;BMP280;46322;52.018;8.702;2022-08-24T21:41:54;100637.50;;;33.97
60003;BMP280;46322;52.018;8.702;2022-08-24T21:46:55;100636.53;;;33.51
60003;BMP280;46322;52.018;8.702;2022-08-24T21:51:56;100637.81;;;33.84
60003;BMP280;46322;52.018;8.702;2022-08-24T21:56:56;100640.66;;;33.17
60003;BMP280;46322;52.018;8.702;2022-08-24T22:01:57;100639.88;;;33.55
60003;BMP280;46322;52.018;8.702;2022-08-24T22:06:58;100643.84;;;33.39
60003;BMP280;46322;52.018;8.702;2022-08-24T22:11:58;100643.28;;;33.35
60003;BMP280;46322;52.018;8.702;2022-08-24T22:16:59;100642.03;;;33.51
60003;BMP280;46322;52.018;8.702;2022-08-24T22:22:02;100636.34;;;33.25
60003;BMP280;46322;52.018;8.702;2022-08-24T22:27:02;100633.69;;;32.77
60003;BMP280;46322;52.018;8.702;2022-08-24T22:32:03;100634.81;;;31.81
60003;BMP280;46322;52.018;8.702;2022-08-24T22:37:04;100628.66;;;33.14
60003;BMP280;46322;52.018;8.702;2022-08-24T22:42:05;100626.50;;;33.33
60003;BMP280;46322;52.018;8.702;2022-08-24T22:47:05;100621.53;;;33.22
60003;BMP280;46322;52.018;8.702;2022-08-24T22:52:06;100617.00;;;32.90
60003;BMP280;46322;52.018;8.702;2022-08-24T22:57:07;100620.13;;;32.97
60003;BMP280;46322;52.018;8.702;2022-08-24T23:02:11;100616.78;;;32.93
60003;BMP280;46322;52.018;8.702;2022-08-24T23:07:12;100622.09;;;32.59
60003;BMP280;46322;52.018;8.702;2022-08-24T23:12:19;100620.19;;;32.65
60003;BMP280;46322;52.018;8.702;2022-08-24T23:17:21;100618.19;;;32.27
60003;BMP280;46322;52.018;8.702;2022-08-24T23:22:21;100622.03;;;32.20
60003;BMP280;46322;52.018;8.702;2022-08-24T23:27:24;100622.03;;;32.11
60003;BMP280;46322;52.018;8.702;2022-08-24T23:32:24;100624.38;;;32.03
60003;BMP280;46322;52.018;8.702;2022-08-24T23:37:24;100625.75;;;31.57
60003;BMP280;46322;52.018;8.702;2022-08-24T23:42:25;100623.97;;;31.87
60003;BMP280;46322;52.018;8.702;2022-08-24T23:47:26;100617.72;;;31.95
60003;BMP280;46322;52.018;8.702;2022-08-24T23:52:26;100625.41;;;31.73
60003;BMP280;46322;52.018;8.702;2022-08-24T23:57:26;100614.00;;;31.75
